sensor_id;sensor_type;location;lat;lon;timestamp;temperature;humidity
8152;DHT22;4117;53.622;9.958;2023-06-14T00:01:11;15.40;1.00
8152;DHT22;4117;53.622;9.958;2023-06-14T00:03:39;15.40;1.00
8152;DHT22;4117;53.622;9.958;2023-06-14T00:06:06;15.40;1.00
8152;DHT22;4117;53.622;9.958;2023-06-14T00:08:33;15.40;1.00
8152;DHT22;4117;53.622;9.958;2023-06-14T00:11:01;15.30;1.00
8152;DHT22;4117;53.622;9.958;2023-06-14T00:13:28;15.30;1.00
8152;DHT22;4117;53.622;9.958;2023-06-14T00:15:55;15.40;1.00
8152;DHT22;4117;53.622;9.958;2023-06-14T00:18:22;15.30;1.00
8152;DHT22;4117;53.622;9.958;2023-06-14T00:20:50;15.30;1.00
8152;DHT22;4117;53.622;9.958;2023-06-14T00:23:18;15.30;1.00
8152;DHT22;4117;53.622;9.958;2023-06-14T00:25:45;15.30;1.00
8152;DHT22;4117;53.622;9.958;2023-06-14T00:28:13;15.20;1.00
8152;DHT22;4117;53.622;9.958;2023-06-14T00:30:40;15.10;1.00
8152;DHT22;4117;53.622;9.958;2023-06-14T00:33:09;15.20;1.00
8152;DHT22;4117;53.622;9.958;2023-06-14T00:35:36;15.20;1.00
8152;DHT22;4117;53.622;9.958;2023-06-14T00:38:03;15.20;1.00
8152;DHT22;4117;53.622;9.958;2023-06-14T00:40:30;15.10;1.00
8152;DHT22;4117;53.622;9.958;2023-06-14T00:42:57;15.10;1.00
8152;DHT22;4117;53.622;9.958;2023-06-14T00:45:25;15.10;1.00
8152;DHT22;4117;53.622;9.958;2023-06-14T00:47:53;15.10;1.00
8152;DHT22;4117;53.622;9.958;2023-06-14T00:50:21;15.20;1.00
8152;DHT22;4117;53.622;9.958;2023-06-14T00:52:49;15.20;1.00
8152;DHT22;4117;53.622;9.958;2023-06-14T00:55:16;15.10;1.00
8152;DHT22;4117;53.622;9.958;2023-06-14T00:57:43;15.10;1.00
8152;DHT22;4117;53.622;9.958;2023-06-14T01:00:12;15.00;1.00
8152;DHT22;4117;53.622;9.958;2023-06-14T01:02:41;15.00;1.00
8152;DHT22;4117;53.622;9.958;2023-06-14T01:05:08;14.90;1.00
8152;DHT22;4117;53.622;9.958;2023-06-14T01:07:58;14.90;1.00
8152;DHT22;4117;53.622;9.958;2023-06-14T01:10:34;14.80;1.00
8152;DHT22;4117;53.622;9.958;2023-06-14T01:13:07;14.80;1.00
8152;DHT22;4117;53.622;9.958;2023-06-14T01:15:37;14.70;1.00
8152;DHT22;4117;53.622;9.958;2023-06-14T01:18:06;14.70;1.00
8152;DHT22;4117;53.622;9.958;2023-06-14T01:20:34;14.70;1.00
8152;DHT22;4117;53.622;9.958;2023-06-14T01:23:04;14.60;1.00
8152;DHT22;4117;53.622;9.958;2023-06-14T01:25:31;14.60;1.00
8152;DHT22;4117;53.622;9.958;2023-06-14T01:28:00;14.50;1.00
8152;DHT22;4117;53.622;9.958;2023-06-14T01:30:29;14.50;1.00
8152;DHT22;4117;53.622;9.958;2023-06-14T01:32:58;14.50;1.00
8152;DHT22;4117;53.622;9.958;2023-06-14T01:35:25;14.50;1.00
8152;DHT22;4117;53.622;9.958;2023-06-14T01:37:53;14.40;1.00
8152;DHT22;4117;53.622;9.958;2023-06-14T01:40:22;14.40;1.00
8152;DHT22;4117;53.622;9.958;2023-06-14T01:42:50;14.40;1.00
8152;DHT22;4117;53.622;9.958;2023-06-14T01:45:18;14.40;1.00
8152;DHT22;4117;53.622;9.958;2023-06-14T01:47:46;14.30;1.00
8152;DHT22;4117;53.622;9.958;2023-06-14T01:50:13;14.30;1.00
8152;DHT22;4117;53.622;9.958;2023-06-14T01:52:40;14.30;1.00
8152;DHT22;4117;53.622;9.958;2023-06-14T01:55:08;14.30;1.00
8152;DHT22;4117;53.622;9.958;2023-06-14T01:57:36;14.20;1.00
8152;DHT22;4117;53.622;9.958;2023-06-14T02:00:04;14.20;1.00
8152;DHT22;4117;53.622;9.958;2023-06-14T02:05:51;14.20;1.00
8152;DHT22;4117;53.622;9.958;2023-06-14T02:08:20;14.10;1.00
8152;DHT22;4117;53.622;9.958;2023-06-14T02:10:47;14.10;1.00
8152;DHT22;4117;53.622;9.958;2023-06-14T02:13:18;14.00;1.00
8152;DHT22;4117;53.622;9.958;2023-06-14T02:15:47;14.00;1.00
8152;DHT22;4117;53.622;9.958;2023-06-14T02:18:16;14.00;1.00
8152;DHT22;4117;53.622;9.958;2023-06-14T02:20:59;14.00;1.00
8152;DHT22;4117;53.622;9.958;2023-06-14T02:23:28;14.00;1.00
8152;DHT22;4117;53.622;9.958;2023-06-14T02:26:02;14.00;1.00
8152;DHT22;4117;53.622;9.958;2023-06-14T02:28:51;13.90;1.00
8152;DHT22;4117;53.622;9.958;2023-06-14T02:31:21;13.90;1.00
8152;DHT22;4117;53.622;9.958;2023-06-14T02:33:49;13.80;1.00
8152;DHT22;4117;53.622;9.958;2023-06-14T02:36:27;13.80;1.00
8152;DHT22;4117;53.622;9.958;2023-06-14T02:38:55;13.80;1.00
8152;DHT22;4117;53.622;9.958;2023-06-14T02:41:23;13.80;1.00
8152;DHT22;4117;53.622;9.958;2023-06-14T02:43:51;13.70;1.00
8152;DHT22;4117;53.622;9.958;2023-06-14T02:46:21;13.70;1.00
8152;DHT22;4117;53.622;9.958;2023-06-14T02:48:50;13.70;1.00
8152;DHT22;4117;53.622;9.958;2023-06-14T02:51:17;13.70;1.00
8152;DHT22;4117;53.622;9.958;2023-06-14T02:53:50;13.70;1.00
8152;DHT22;4117;53.622;9.958;2023-06-14T02:56:23;13.70;1.00
8152;DHT22;4117;53.622;9.958;2023-06-14T02:59:06;13.60;1.00
8152;DHT22;4117;53.622;9.958;2023-06-14T03:01:34;13.60;1.00
8152;DHT22;4117;53.622;9.958;2023-06-14T03:04:06;13.60;1.00
8152;DHT22;4117;53.622;9.958;2023-06-14T03:06:35;13.60;1.00
8152;DHT22;4117;53.622;9.958;2023-06-14T03:09:03;13.60;1.00
8152;DHT22;4117;53.622;9.958;2023-06-14T03:11:36;13.50;1.00
8152;DHT22;4117;53.622;9.958;2023-06-14T03:14:06;13.50;1.00
8152;DHT22;4117;53.622;9.958;2023-06-14T03:16:40;13.50;1.00
8152;DHT22;4117;53.622;9.958;2023-06-14T03:23:04;13.50;1.00
8152;DHT22;4117;53.622;9.958;2023-06-14T03:25:34;13.50;1.00
8152;DHT22;4117;53.622;9.958;2023-06-14T03:28:04;13.50;1.00
8152;DHT22;4117;53.622;9.958;2023-06-14T03:34:25;13.50;1.00
8152;DHT22;4117;53.622;9.958;2023-06-14T03:37:05;13.50;1.00
8152;DHT22;4117;53.622;9.958;2023-06-14T03:39:33;13.50;1.00
8152;DHT22;4117;53.622;9.958;2023-06-14T03:42:05;13.50;1.00
8152;DHT22;4117;53.622;9.958;2023-06-14T03:44:32;13.50;1.00
8152;DHT22;4117;53.622;9.958;2023-06-14T03:47:07;13.50;1.00
8152;DHT22;4117;53.622;9.958;2023-06-14T03:49:43;13.50;1.00
8152;DHT22;4117;53.622;9.958;2023-06-14T03:52:34;13.50;1.00
8152;DHT22;4117;53.622;9.958;2023-06-14T03:55:19;13.60;1.00
8152;DHT22;4117;53.622;9.958;2023-06-14T03:58:05;13.60;1.00
8152;DHT22;4117;53.622;9.958;2023-06-14T04:00:32;13.60;1.00
8152;DHT22;4117;53.622;9.958;2023-06-14T04:03:02;13.60;1.00
8152;DHT22;4117;53.622;9.958;2023-06-14T04:05:33;13.60;1.00
8152;DHT22;4117;53.622;9.958;2023-06-14T04:11:33;13.70;1.00
8152;DHT22;4117;53.622;9.958;2023-06-14T04:17:32;13.70;1.00
8152;DHT22;4117;53.622;9.958;2023-06-14T04:20:11;13.80;1.00
8152;DHT22;4117;53.622;9.958;2023-06-14T04:23:32;13.80;1.00
8152;DHT22;4117;53.622;9.958;2023-06-14T04:25:59;13.80;1.00
8152;DHT22;4117;53.622;9.958;2023-06-14T04:31:40;13.90;1.00
8152;DHT22;4117;53.622;9.958;2023-06-14T04:34:09;13.90;1.00
8152;DHT22;4117;53.622;9.958;2023-06-14T04:36:48;13.90;1.00
8152;DHT22;4117;53.622;9.958;2023-06-14T04:39:23;13.90;1.00
8152;DHT22;4117;53.622;9.958;2023-06-14T04:41:54;14.00;1.00
8152;DHT22;4117;53.622;9.958;2023-06-14T04:44:36;14.00;1.00
8152;DHT22;4117;53.622;9.958;2023-06-14T04:47:12;14.00;1.00
8152;DHT22;4117;53.622;9.958;2023-06-14T04:49:41;14.10;1.00
8152;DHT22;4117;53.622;9.958;2023-06-14T04:52:09;14.10;1.00
8152;DHT22;4117;53.622;9.958;2023-06-14T04:54:57;14.10;1.00
8152;DHT22;4117;53.622;9.958;2023-06-14T04:57:37;14.10;1.00
8152;DHT22;4117;53.622;9.958;2023-06-14T05:00:35;14.20;1.00
8152;DHT22;4117;53.622;9.958;2023-06-14T05:03:06;14.20;1.00
8152;DHT22;4117;53.622;9.958;2023-06-14T05:09:06;14.40;1.00
8152;DHT22;4117;53.622;9.958;2023-06-14T05:11:35;14.40;1.00
8152;DHT22;4117;53.622;9.958;2023-06-14T05:14:13;14.40;1.00
8152;DHT22;4117;53.622;9.958;2023-06-14T05:16:44;14.50;1.00
8152;DHT22;4117;53.622;9.958;2023-06-14T05:19:19;14.60;1.00
8152;DHT22;4117;53.622;9.958;2023-06-14T05:24:53;14.70;1.00
8152;DHT22;4117;53.622;9.958;2023-06-14T05:30:41;14.80;1.00
8152;DHT22;4117;53.622;9.958;2023-06-14T05:33:19;14.90;1.00
8152;DHT22;4117;53.622;9.958;2023-06-14T05:35:54;15.00;1.00
8152;DHT22;4117;53.622;9.958;2023-06-14T05:38:35;15.10;1.00
8152;DHT22;4117;53.622;9.958;2023-06-14T05:54:37;15.50;1.00
8152;DHT22;4117;53.622;9.958;2023-06-14T05:57:57;15.50;1.00
8152;DHT22;4117;53.622;9.958;2023-06-14T06:06:25;15.90;1.00
8152;DHT22;4117;53.622;9.958;2023-06-14T06:08:52;15.90;1.00
8152;DHT22;4117;53.622;9.958;2023-06-14T06:11:19;16.00;1.00
8152;DHT22;4117;53.622;9.958;2023-06-14T06:13:46;16.00;1.00
8152;DHT22;4117;53.622;9.958;2023-06-14T06:16:12;16.10;1.00
8152;DHT22;4117;53.622;9.958;2023-06-14T06:18:39;16.10;1.00
8152;DHT22;4117;53.622;9.958;2023-06-14T06:21:06;16.20;1.00
8152;DHT22;4117;53.622;9.958;2023-06-14T06:23:36;16.30;1.00
8152;DHT22;4117;53.622;9.958;2023-06-14T06:26:03;16.40;1.00
8152;DHT22;4117;53.622;9.958;2023-06-14T06:28:30;16.50;1.00
8152;DHT22;4117;53.622;9.958;2023-06-14T06:30:57;16.60;1.00
8152;DHT22;4117;53.622;9.958;2023-06-14T06:33:24;16.70;1.00
8152;DHT22;4117;53.622;9.958;2023-06-14T06:35:51;16.80;1.00
8152;DHT22;4117;53.622;9.958;2023-06-14T06:38:18;16.90;1.00
8152;DHT22;4117;53.622;9.958;2023-06-14T06:40:46;17.00;1.00
8152;DHT22;4117;53.622;9.958;2023-06-14T06:43:13;17.20;1.00
8152;DHT22;4117;53.622;9.958;2023-06-14T06:45:42;17.20;1.00
8152;DHT22;4117;53.622;9.958;2023-06-14T06:48:09;17.30;1.00
8152;DHT22;4117;53.622;9.958;2023-06-14T06:50:36;17.40;1.00
8152;DHT22;4117;53.622;9.958;2023-06-14T06:53:03;17.60;1.00
8152;DHT22;4117;53.622;9.958;2023-06-14T06:55:32;17.70;1.00
8152;DHT22;4117;53.622;9.958;2023-06-14T06:58:00;17.80;1.00
8152;DHT22;4117;53.622;9.958;2023-06-14T07:00:30;17.80;1.00
8152;DHT22;4117;53.622;9.958;2023-06-14T07:02:57;17.90;1.00
8152;DHT22;4117;53.622;9.958;2023-06-14T07:05:24;18.00;1.00
8152;DHT22;4117;53.622;9.958;2023-06-14T07:07:51;18.10;1.00
8152;DHT22;4117;53.622;9.958;2023-06-14T07:10:18;18.10;1.00
8152;DHT22;4117;53.622;9.958;2023-06-14T07:12:45;18.20;1.00
8152;DHT22;4117;53.622;9.958;2023-06-14T07:15:13;18.40;1.00
8152;DHT22;4117;53.622;9.958;2023-06-14T07:17:40;18.40;1.00
8152;DHT22;4117;53.622;9.958;2023-06-14T07:20:08;18.50;1.00
8152;DHT22;4117;53.622;9.958;2023-06-14T07:22:38;18.60;1.00
8152;DHT22;4117;53.622;9.958;2023-06-14T07:25:06;18.60;1.00
8152;DHT22;4117;53.622;9.958;2023-06-14T07:27:33;18.70;1.00
8152;DHT22;4117;53.622;9.958;2023-06-14T07:30:00;18.80;1.00
8152;DHT22;4117;53.622;9.958;2023-06-14T07:32:29;18.80;1.00
8152;DHT22;4117;53.622;9.958;2023-06-14T07:34:56;19.00;1.00
8152;DHT22;4117;53.622;9.958;2023-06-14T07:37:23;18.90;1.00
8152;DHT22;4117;53.622;9.958;2023-06-14T07:39:50;19.00;1.00
8152;DHT22;4117;53.622;9.958;2023-06-14T07:42:16;19.00;1.00
8152;DHT22;4117;53.622;9.958;2023-06-14T07:44:43;19.10;1.00
8152;DHT22;4117;53.622;9.958;2023-06-14T07:47:10;19.30;1.00
8152;DHT22;4117;53.622;9.958;2023-06-14T07:49:39;19.40;1.00
8152;DHT22;4117;53.622;9.958;2023-06-14T07:52:06;19.40;1.00
8152;DHT22;4117;53.622;9.958;2023-06-14T07:54:33;19.30;1.00
8152;DHT22;4117;53.622;9.958;2023-06-14T07:57:01;19.50;1.00
8152;DHT22;4117;53.622;9.958;2023-06-14T07:59:28;19.60;1.00
8152;DHT22;4117;53.622;9.958;2023-06-14T08:01:55;19.70;1.00
8152;DHT22;4117;53.622;9.958;2023-06-14T08:11:08;19.80;1.00
8152;DHT22;4117;53.622;9.958;2023-06-14T08:13:35;19.80;1.00
8152;DHT22;4117;53.622;9.958;2023-06-14T08:16:02;19.80;1.00
8152;DHT22;4117;53.622;9.958;2023-06-14T08:18:30;19.80;1.00
8152;DHT22;4117;53.622;9.958;2023-06-14T08:20:57;19.90;1.00
8152;DHT22;4117;53.622;9.958;2023-06-14T08:23:24;20.10;1.00
8152;DHT22;4117;53.622;9.958;2023-06-14T08:25:52;20.10;1.00
8152;DHT22;4117;53.622;9.958;2023-06-14T08:28:21;20.10;1.00
8152;DHT22;4117;53.622;9.958;2023-06-14T08:30:48;20.20;1.00
8152;DHT22;4117;53.622;9.958;2023-06-14T08:33:14;20.30;1.00
8152;DHT22;4117;53.622;9.958;2023-06-14T08:35:42;20.40;1.00
8152;DHT22;4117;53.622;9.958;2023-06-14T08:38:10;20.40;1.00
8152;DHT22;4117;53.622;9.958;2023-06-14T08:40:37;20.30;1.00
8152;DHT22;4117;53.622;9.958;2023-06-14T08:43:04;20.50;1.00
8152;DHT22;4117;53.622;9.958;2023-06-14T08:45:33;20.30;1.00
8152;DHT22;4117;53.622;9.958;2023-06-14T08:48:01;20.40;1.00
8152;DHT22;4117;53.622;9.958;2023-06-14T08:50:28;20.50;1.00
8152;DHT22;4117;53.622;9.958;2023-06-14T08:52:57;20.50;1.00
8152;DHT22;4117;53.622;9.958;2023-06-14T08:55:27;20.60;1.00
8152;DHT22;4117;53.622;9.958;2023-06-14T08:57:55;20.80;1.00
8152;DHT22;4117;53.622;9.958;2023-06-14T09:00:24;20.80;1.00
8152;DHT22;4117;53.622;9.958;2023-06-14T09:02:53;20.70;1.00
8152;DHT22;4117;53.622;9.958;2023-06-14T09:05:24;20.60;1.00
8152;DHT22;4117;53.622;9.958;2023-06-14T09:07:51;20.80;1.00
8152;DHT22;4117;53.622;9.958;2023-06-14T09:10:21;20.90;1.00
8152;DHT22;4117;53.622;9.958;2023-06-14T09:12:48;20.90;1.00
8152;DHT22;4117;53.622;9.958;2023-06-14T09:15:15;21.00;1.00
8152;DHT22;4117;53.622;9.958;2023-06-14T09:17:42;21.00;1.00
8152;DHT22;4117;53.622;9.958;2023-06-14T09:20:12;21.00;1.00
8152;DHT22;4117;53.622;9.958;2023-06-14T09:22:43;21.00;1.00
8152;DHT22;4117;53.622;9.958;2023-06-14T09:25:10;20.90;1.00
8152;DHT22;4117;53.622;9.958;2023-06-14T09:27:38;20.90;1.00
8152;DHT22;4117;53.622;9.958;2023-06-14T09:30:09;21.00;1.00
8152;DHT22;4117;53.622;9.958;2023-06-14T09:32:37;21.10;1.00
8152;DHT22;4117;53.622;9.958;2023-06-14T09:35:06;21.20;1.00
8152;DHT22;4117;53.622;9.958;2023-06-14T09:37:35;21.40;1.00
8152;DHT22;4117;53.622;9.958;2023-06-14T09:40:04;21.30;1.00
8152;DHT22;4117;53.622;9.958;2023-06-14T09:42:32;21.20;1.00
8152;DHT22;4117;53.622;9.958;2023-06-14T09:45:02;21.30;1.00
8152;DHT22;4117;53.622;9.958;2023-06-14T09:47:30;21.30;1.00
8152;DHT22;4117;53.622;9.958;2023-06-14T09:49:57;21.30;1.00
8152;DHT22;4117;53.622;9.958;2023-06-14T09:52:26;21.20;1.00
8152;DHT22;4117;53.622;9.958;2023-06-14T09:54:56;21.10;1.00
8152;DHT22;4117;53.622;9.958;2023-06-14T09:57:25;21.20;1.00
8152;DHT22;4117;53.622;9.958;2023-06-14T09:59:57;21.20;1.00
8152;DHT22;4117;53.622;9.958;2023-06-14T10:02:26;21.00;1.00
8152;DHT22;4117;53.622;9.958;2023-06-14T10:04:58;21.10;1.00
8152;DHT22;4117;53.622;9.958;2023-06-14T10:07:30;21.20;1.00
8152;DHT22;4117;53.622;9.958;2023-06-14T10:09:59;21.30;1.00
8152;DHT22;4117;53.622;9.958;2023-06-14T10:12:27;21.40;1.00
8152;DHT22;4117;53.622;9.958;2023-06-14T10:14:54;21.30;1.00
8152;DHT22;4117;53.622;9.958;2023-06-14T10:17:27;21.30;1.00
8152;DHT22;4117;53.622;9.958;2023-06-14T10:19:58;21.30;1.00
8152;DHT22;4117;53.622;9.958;2023-06-14T10:22:34;21.30;1.00
8152;DHT22;4117;53.622;9.958;2023-06-14T10:25:07;21.40;1.00
8152;DHT22;4117;53.622;9.958;2023-06-14T10:27:37;21.40;1.00
8152;DHT22;4117;53.622;9.958;2023-06-14T10:30:07;21.40;1.00
8152;DHT22;4117;53.622;9.958;2023-06-14T10:32:34;21.50;1.00
8152;DHT22;4117;53.622;9.958;2023-06-14T10:35:04;21.40;1.00
8152;DHT22;4117;53.622;9.958;2023-06-14T10:37:32;21.30;1.00
8152;DHT22;4117;53.622;9.958;2023-06-14T10:39:59;21.40;1.00
8152;DHT22;4117;53.622;9.958;2023-06-14T10:42:33;21.50;1.00
8152;DHT22;4117;53.622;9.958;2023-06-14T10:45:00;21.50;1.00
8152;DHT22;4117;53.622;9.958;2023-06-14T10:47:28;21.70;1.00
8152;DHT22;4117;53.622;9.958;2023-06-14T10:50:02;21.80;1.00
8152;DHT22;4117;53.622;9.958;2023-06-14T10:52:33;21.70;1.00
8152;DHT22;4117;53.622;9.958;2023-06-14T10:55:08;21.60;1.00
8152;DHT22;4117;53.622;9.958;2023-06-14T10:57:39;21.60;1.00
8152;DHT22;4117;53.622;9.958;2023-06-14T11:00:08;21.70;1.00
8152;DHT22;4117;53.622;9.958;2023-06-14T11:05:49;21.90;1.00
8152;DHT22;4117;53.622;9.958;2023-06-14T11:08:39;22.00;1.00
8152;DHT22;4117;53.622;9.958;2023-06-14T11:11:08;21.90;1.00
8152;DHT22;4117;53.622;9.958;2023-06-14T11:13:39;21.80;1.00
8152;DHT22;4117;53.622;9.958;2023-06-14T11:16:10;21.90;1.00
8152;DHT22;4117;53.622;9.958;2023-06-14T11:18:38;22.10;1.00
8152;DHT22;4117;53.622;9.958;2023-06-14T11:21:06;22.20;1.00
8152;DHT22;4117;53.622;9.958;2023-06-14T11:23:34;22.00;1.00
8152;DHT22;4117;53.622;9.958;2023-06-14T11:26:01;21.90;1.00
8152;DHT22;4117;53.622;9.958;2023-06-14T11:28:38;21.80;1.00
8152;DHT22;4117;53.622;9.958;2023-06-14T11:31:06;21.80;1.00
8152;DHT22;4117;53.622;9.958;2023-06-14T11:33:34;21.80;1.00
8152;DHT22;4117;53.622;9.958;2023-06-14T11:36:03;21.80;1.00
8152;DHT22;4117;53.622;9.958;2023-06-14T11:38:30;21.90;1.00
8152;DHT22;4117;53.622;9.958;2023-06-14T11:40:59;22.10;1.00
8152;DHT22;4117;53.622;9.958;2023-06-14T11:43:27;22.30;1.00
8152;DHT22;4117;53.622;9.958;2023-06-14T11:45:56;22.30;1.00
8152;DHT22;4117;53.622;9.958;2023-06-14T11:48:23;22.20;1.00
8152;DHT22;4117;53.622;9.958;2023-06-14T11:50:50;22.10;1.00
8152;DHT22;4117;53.622;9.958;2023-06-14T11:53:17;22.00;1.00
8152;DHT22;4117;53.622;9.958;2023-06-14T11:55:44;21.90;1.00
8152;DHT22;4117;53.622;9.958;2023-06-14T11:58:13;21.90;1.00
8152;DHT22;4117;53.622;9.958;2023-06-14T12:00:40;21.90;1.00
8152;DHT22;4117;53.622;9.958;2023-06-14T12:03:12;22.10;1.00
8152;DHT22;4117;53.622;9.958;2023-06-14T12:05:39;22.20;1.00
8152;DHT22;4117;53.622;9.958;2023-06-14T12:08:06;22.10;1.00
8152;DHT22;4117;53.622;9.958;2023-06-14T12:10:39;22.10;1.00
8152;DHT22;4117;53.622;9.958;2023-06-14T12:13:06;22.20;1.00
8152;DHT22;4117;53.622;9.958;2023-06-14T12:15:34;22.40;1.00
8152;DHT22;4117;53.622;9.958;2023-06-14T12:18:01;22.40;1.00
8152;DHT22;4117;53.622;9.958;2023-06-14T12:20:33;22.50;1.00
8152;DHT22;4117;53.622;9.958;2023-06-14T12:23:03;22.50;1.00
8152;DHT22;4117;53.622;9.958;2023-06-14T12:25:32;22.50;1.00
8152;DHT22;4117;53.622;9.958;2023-06-14T12:28:04;22.50;1.00
8152;DHT22;4117;53.622;9.958;2023-06-14T12:30:31;22.50;1.00
8152;DHT22;4117;53.622;9.958;2023-06-14T12:32:58;22.50;1.00
8152;DHT22;4117;53.622;9.958;2023-06-14T12:35:26;22.60;1.00
8152;DHT22;4117;53.622;9.958;2023-06-14T12:37:54;22.70;1.00
8152;DHT22;4117;53.622;9.958;2023-06-14T12:40:22;22.80;1.00
8152;DHT22;4117;53.622;9.958;2023-06-14T12:42:49;22.80;1.00
8152;DHT22;4117;53.622;9.958;2023-06-14T12:45:16;22.80;1.00
8152;DHT22;4117;53.622;9.958;2023-06-14T12:47:43;22.70;1.00
8152;DHT22;4117;53.622;9.958;2023-06-14T12:50:10;22.70;1.00
8152;DHT22;4117;53.622;9.958;2023-06-14T12:52:37;22.80;1.00
8152;DHT22;4117;53.622;9.958;2023-06-14T12:55:06;22.90;1.00
8152;DHT22;4117;53.622;9.958;2023-06-14T12:57:33;22.90;1.00
8152;DHT22;4117;53.622;9.958;2023-06-14T13:00:03;22.90;1.00
8152;DHT22;4117;53.622;9.958;2023-06-14T13:02:30;22.80;1.00
8152;DHT22;4117;53.622;9.958;2023-06-14T13:04:57;22.70;1.00
8152;DHT22;4117;53.622;9.958;2023-06-14T13:07:24;22.60;1.00
8152;DHT22;4117;53.622;9.958;2023-06-14T13:09:51;22.50;1.00
8152;DHT22;4117;53.622;9.958;2023-06-14T13:12:20;22.50;1.00
8152;DHT22;4117;53.622;9.958;2023-06-14T13:14:46;22.60;1.00
8152;DHT22;4117;53.622;9.958;2023-06-14T13:17:13;22.80;1.00
8152;DHT22;4117;53.622;9.958;2023-06-14T13:19:40;22.90;1.00
8152;DHT22;4117;53.622;9.958;2023-06-14T13:22:08;22.90;1.00
8152;DHT22;4117;53.622;9.958;2023-06-14T13:24:35;23.00;1.00
8152;DHT22;4117;53.622;9.958;2023-06-14T13:27:03;23.10;1.00
8152;DHT22;4117;53.622;9.958;2023-06-14T13:29:32;23.00;1.00
8152;DHT22;4117;53.622;9.958;2023-06-14T13:32:01;23.00;1.00
8152;DHT22;4117;53.622;9.958;2023-06-14T13:34:28;23.10;1.00
8152;DHT22;4117;53.622;9.958;2023-06-14T13:36:55;23.10;1.00
8152;DHT22;4117;53.622;9.958;2023-06-14T13:39:24;23.20;1.00
8152;DHT22;4117;53.622;9.958;2023-06-14T13:41:51;23.10;1.00
8152;DHT22;4117;53.622;9.958;2023-06-14T13:44:18;23.00;1.00
8152;DHT22;4117;53.622;9.958;2023-06-14T13:46:48;23.10;1.00
8152;DHT22;4117;53.622;9.958;2023-06-14T13:49:15;23.00;1.00
8152;DHT22;4117;53.622;9.958;2023-06-14T13:51:42;23.10;1.00
8152;DHT22;4117;53.622;9.958;2023-06-14T13:54:12;23.20;1.00
8152;DHT22;4117;53.622;9.958;2023-06-14T13:56:40;23.20;1.00
8152;DHT22;4117;53.622;9.958;2023-06-14T13:59:07;23.30;1.00
8152;DHT22;4117;53.622;9.958;2023-06-14T14:01:35;23.40;1.00
8152;DHT22;4117;53.622;9.958;2023-06-14T14:04:03;23.50;1.00
8152;DHT22;4117;53.622;9.958;2023-06-14T14:06:30;23.30;1.00
8152;DHT22;4117;53.622;9.958;2023-06-14T14:08:57;23.10;1.00
8152;DHT22;4117;53.622;9.958;2023-06-14T14:11:24;22.90;1.00
8152;DHT22;4117;53.622;9.958;2023-06-14T14:13:51;22.90;1.00
8152;DHT22;4117;53.622;9.958;2023-06-14T14:16:18;22.90;1.00
8152;DHT22;4117;53.622;9.958;2023-06-14T14:18:45;22.90;1.00
8152;DHT22;4117;53.622;9.958;2023-06-14T14:21:14;22.90;1.00
8152;DHT22;4117;53.622;9.958;2023-06-14T14:23:41;22.90;1.00
8152;DHT22;4117;53.622;9.958;2023-06-14T14:26:08;23.10;1.00
8152;DHT22;4117;53.622;9.958;2023-06-14T14:28:35;23.20;1.00
8152;DHT22;4117;53.622;9.958;2023-06-14T14:31:02;23.30;1.00
8152;DHT22;4117;53.622;9.958;2023-06-14T14:33:29;23.40;1.00
8152;DHT22;4117;53.622;9.958;2023-06-14T14:35:56;23.40;1.00
8152;DHT22;4117;53.622;9.958;2023-06-14T14:38:25;23.40;1.00
8152;DHT22;4117;53.622;9.958;2023-06-14T14:40:51;23.40;1.00
8152;DHT22;4117;53.622;9.958;2023-06-14T14:43:19;23.10;1.00
8152;DHT22;4117;53.622;9.958;2023-06-14T14:45:46;23.10;1.00
8152;DHT22;4117;53.622;9.958;2023-06-14T14:48:13;23.00;1.00
8152;DHT22;4117;53.622;9.958;2023-06-14T14:50:40;22.90;1.00
8152;DHT22;4117;53.622;9.958;2023-06-14T14:53:08;23.00;1.00
8152;DHT22;4117;53.622;9.958;2023-06-14T14:55:36;23.20;1.00
8152;DHT22;4117;53.622;9.958;2023-06-14T14:58:04;23.20;1.00
8152;DHT22;4117;53.622;9.958;2023-06-14T15:00:32;23.30;1.00
8152;DHT22;4117;53.622;9.958;2023-06-14T15:02:59;23.40;1.00
8152;DHT22;4117;53.622;9.958;2023-06-14T15:05:26;23.40;1.00
8152;DHT22;4117;53.622;9.958;2023-06-14T15:07:53;23.40;1.00
8152;DHT22;4117;53.622;9.958;2023-06-14T15:10:20;23.50;1.00
8152;DHT22;4117;53.622;9.958;2023-06-14T15:12:49;23.50;1.00
8152;DHT22;4117;53.622;9.958;2023-06-14T15:15:16;23.50;1.00
8152;DHT22;4117;53.622;9.958;2023-06-14T15:17:43;23.60;1.00
8152;DHT22;4117;53.622;9.958;2023-06-14T15:20:11;23.50;1.00
8152;DHT22;4117;53.622;9.958;2023-06-14T15:22:38;23.40;1.00
8152;DHT22;4117;53.622;9.958;2023-06-14T15:25:06;23.40;1.00
8152;DHT22;4117;53.622;9.958;2023-06-14T15:27:33;23.40;1.00
8152;DHT22;4117;53.622;9.958;2023-06-14T15:30:02;23.50;1.00
8152;DHT22;4117;53.622;9.958;2023-06-14T15:32:30;23.40;1.00
8152;DHT22;4117;53.622;9.958;2023-06-14T15:34:56;23.30;1.00
8152;DHT22;4117;53.622;9.958;2023-06-14T15:37:24;23.40;1.00
8152;DHT22;4117;53.622;9.958;2023-06-14T15:39:51;23.40;1.00
8152;DHT22;4117;53.622;9.958;2023-06-14T15:42:17;23.30;1.00
8152;DHT22;4117;53.622;9.958;2023-06-14T15:44:44;23.40;1.00
8152;DHT22;4117;53.622;9.958;2023-06-14T15:47:14;23.30;1.00
8152;DHT22;4117;53.622;9.958;2023-06-14T15:49:41;23.40;1.00
8152;DHT22;4117;53.622;9.958;2023-06-14T15:52:08;23.30;1.00
8152;DHT22;4117;53.622;9.958;2023-06-14T15:54:35;23.40;1.00
8152;DHT22;4117;53.622;9.958;2023-06-14T15:57:02;23.30;1.00
8152;DHT22;4117;53.622;9.958;2023-06-14T15:59:30;23.30;1.00
8152;DHT22;4117;53.622;9.958;2023-06-14T16:01:56;23.30;1.00
8152;DHT22;4117;53.622;9.958;2023-06-14T16:04:25;23.30;1.00
8152;DHT22;4117;53.622;9.958;2023-06-14T16:06:52;23.40;1.00
8152;DHT22;4117;53.622;9.958;2023-06-14T16:09:19;23.40;1.00
8152;DHT22;4117;53.622;9.958;2023-06-14T16:11:46;23.40;1.00
8152;DHT22;4117;53.622;9.958;2023-06-14T16:14:13;23.30;1.00
8152;DHT22;4117;53.622;9.958;2023-06-14T16:16:40;23.20;1.00
8152;DHT22;4117;53.622;9.958;2023-06-14T16:19:07;23.20;1.00
8152;DHT22;4117;53.622;9.958;2023-06-14T16:21:35;23.20;1.00
8152;DHT22;4117;53.622;9.958;2023-06-14T16:24:03;23.20;1.00
8152;DHT22;4117;53.622;9.958;2023-06-14T16:26:30;23.10;1.00
8152;DHT22;4117;53.622;9.958;2023-06-14T16:28:57;23.00;1.00
8152;DHT22;4117;53.622;9.958;2023-06-14T16:31:24;22.90;1.00
8152;DHT22;4117;53.622;9.958;2023-06-14T16:33:51;23.00;1.00
8152;DHT22;4117;53.622;9.958;2023-06-14T16:36:20;23.10;1.00
8152;DHT22;4117;53.622;9.958;2023-06-14T16:38:49;23.00;1.00
8152;DHT22;4117;53.622;9.958;2023-06-14T16:41:16;23.00;1.00
8152;DHT22;4117;53.622;9.958;2023-06-14T16:43:43;23.00;1.00
8152;DHT22;4117;53.622;9.958;2023-06-14T16:46:10;23.00;1.00
8152;DHT22;4117;53.622;9.958;2023-06-14T16:48:37;22.90;1.00
8152;DHT22;4117;53.622;9.958;2023-06-14T16:51:04;22.80;1.00
8152;DHT22;4117;53.622;9.958;2023-06-14T16:53:31;22.70;1.00
8152;DHT22;4117;53.622;9.958;2023-06-14T16:55:59;22.70;1.00
8152;DHT22;4117;53.622;9.958;2023-06-14T16:58:28;22.70;1.00
8152;DHT22;4117;53.622;9.958;2023-06-14T17:00:55;22.70;1.00
8152;DHT22;4117;53.622;9.958;2023-06-14T17:03:22;22.70;1.00
8152;DHT22;4117;53.622;9.958;2023-06-14T17:05:54;22.70;1.00
8152;DHT22;4117;53.622;9.958;2023-06-14T17:08:21;22.80;1.00
8152;DHT22;4117;53.622;9.958;2023-06-14T17:10:49;22.70;1.00
8152;DHT22;4117;53.622;9.958;2023-06-14T17:13:17;22.80;1.00
8152;DHT22;4117;53.622;9.958;2023-06-14T17:15:47;22.70;1.00
8152;DHT22;4117;53.622;9.958;2023-06-14T17:18:14;22.70;1.00
8152;DHT22;4117;53.622;9.958;2023-06-14T17:20:41;22.60;1.00
8152;DHT22;4117;53.622;9.958;2023-06-14T17:23:08;22.60;1.00
8152;DHT22;4117;53.622;9.958;2023-06-14T17:25:35;22.60;1.00
8152;DHT22;4117;53.622;9.958;2023-06-14T17:28:02;22.60;1.00
8152;DHT22;4117;53.622;9.958;2023-06-14T17:30:31;22.50;1.00